sensor_id;sensor_type;location;lat;lon;timestamp;temperature;humidity
29363;DHT22;16349;53.672;10.014;2022-10-18T00:00:42;14.60;99.90
29363;DHT22;16349;53.672;10.014;2022-10-18T00:03:09;14.60;99.90
29363;DHT22;16349;53.672;10.014;2022-10-18T00:05:35;14.50;99.90
29363;DHT22;16349;53.672;10.014;2022-10-18T00:08:02;14.50;99.90
29363;DHT22;16349;53.672;10.014;2022-10-18T00:10:29;14.50;99.90
29363;DHT22;16349;53.672;10.014;2022-10-18T00:12:56;14.50;99.90
29363;DHT22;16349;53.672;10.014;2022-10-18T00:15:24;14.50;99.90
29363;DHT22;16349;53.672;10.014;2022-10-18T00:17:50;14.50;99.90
29363;DHT22;16349;53.672;10.014;2022-10-18T00:20:17;14.40;99.90
29363;DHT22;16349;53.672;10.014;2022-10-18T00:22:44;14.40;99.90
29363;DHT22;16349;53.672;10.014;2022-10-18T00:25:10;14.40;99.90
29363;DHT22;16349;53.672;10.014;2022-10-18T00:27:37;14.40;99.90
29363;DHT22;16349;53.672;10.014;2022-10-18T00:30:04;14.40;99.90
29363;DHT22;16349;53.672;10.014;2022-10-18T00:32:36;14.40;99.90
29363;DHT22;16349;53.672;10.014;2022-10-18T00:35:03;14.40;99.90
29363;DHT22;16349;53.672;10.014;2022-10-18T00:37:31;14.40;99.90
29363;DHT22;16349;53.672;10.014;2022-10-18T00:39:58;14.40;99.90
29363;DHT22;16349;53.672;10.014;2022-10-18T00:42:28;14.40;99.90
29363;DHT22;16349;53.672;10.014;2022-10-18T00:45:18;14.50;99.90
29363;DHT22;16349;53.672;10.014;2022-10-18T00:47:51;14.40;99.90
29363;DHT22;16349;53.672;10.014;2022-10-18T00:50:20;14.40;99.90
29363;DHT22;16349;53.672;10.014;2022-10-18T00:52:50;14.40;99.90
29363;DHT22;16349;53.672;10.014;2022-10-18T00:55:18;14.40;99.90
29363;DHT22;16349;53.672;10.014;2022-10-18T00:57:45;14.40;99.90
29363;DHT22;16349;53.672;10.014;2022-10-18T01:00:12;14.40;99.90
29363;DHT22;16349;53.672;10.014;2022-10-18T01:02:41;14.40;99.90
29363;DHT22;16349;53.672;10.014;2022-10-18T01:05:11;14.40;99.90
29363;DHT22;16349;53.672;10.014;2022-10-18T01:08:00;14.30;99.90
29363;DHT22;16349;53.672;10.014;2022-10-18T01:10:33;14.30;99.90
29363;DHT22;16349;53.672;10.014;2022-10-18T01:13:14;14.30;99.90
29363;DHT22;16349;53.672;10.014;2022-10-18T01:15:56;14.30;99.90
29363;DHT22;16349;53.672;10.014;2022-10-18T01:18:26;14.30;99.90
29363;DHT22;16349;53.672;10.014;2022-10-18T01:21:07;14.30;99.90
29363;DHT22;16349;53.672;10.014;2022-10-18T01:23:52;14.30;99.90
29363;DHT22;16349;53.672;10.014;2022-10-18T01:26:34;14.30;99.90
29363;DHT22;16349;53.672;10.014;2022-10-18T01:29:12;14.20;99.90
29363;DHT22;16349;53.672;10.014;2022-10-18T01:31:45;14.20;99.90
29363;DHT22;16349;53.672;10.014;2022-10-18T01:34:15;14.20;99.90
29363;DHT22;16349;53.672;10.014;2022-10-18T01:36:46;14.20;99.90
29363;DHT22;16349;53.672;10.014;2022-10-18T01:39:16;14.30;99.90
29363;DHT22;16349;53.672;10.014;2022-10-18T01:41:44;14.30;99.90
29363;DHT22;16349;53.672;10.014;2022-10-18T01:44:17;14.30;99.90
29363;DHT22;16349;53.672;10.014;2022-10-18T01:46:47;14.30;99.90
29363;DHT22;16349;53.672;10.014;2022-10-18T01:49:15;14.30;99.90
29363;DHT22;16349;53.672;10.014;2022-10-18T01:51:42;14.30;99.90
29363;DHT22;16349;53.672;10.014;2022-10-18T01:54:09;14.30;99.90
29363;DHT22;16349;53.672;10.014;2022-10-18T01:56:43;14.30;99.90
29363;DHT22;16349;53.672;10.014;2022-10-18T01:59:22;14.30;99.90
29363;DHT22;16349;53.672;10.014;2022-10-18T02:01:59;14.30;99.90
29363;DHT22;16349;53.672;10.014;2022-10-18T02:04:32;14.30;99.90
29363;DHT22;16349;53.672;10.014;2022-10-18T02:07:07;14.30;99.90
29363;DHT22;16349;53.672;10.014;2022-10-18T02:09:37;14.30;99.90
29363;DHT22;16349;53.672;10.014;2022-10-18T02:12:10;14.30;99.90
29363;DHT22;16349;53.672;10.014;2022-10-18T02:14:38;14.20;99.90
29363;DHT22;16349;53.672;10.014;2022-10-18T02:17:08;14.20;99.90
29363;DHT22;16349;53.672;10.014;2022-10-18T02:19:39;14.20;99.90
29363;DHT22;16349;53.672;10.014;2022-10-18T02:22:09;14.20;99.90
29363;DHT22;16349;53.672;10.014;2022-10-18T02:24:38;14.20;99.90
29363;DHT22;16349;53.672;10.014;2022-10-18T02:27:07;14.20;99.90
29363;DHT22;16349;53.672;10.014;2022-10-18T02:29:34;14.20;99.90
29363;DHT22;16349;53.672;10.014;2022-10-18T02:32:05;14.20;99.90
29363;DHT22;16349;53.672;10.014;2022-10-18T02:34:38;14.20;99.90
29363;DHT22;16349;53.672;10.014;2022-10-18T02:37:08;14.20;99.90
29363;DHT22;16349;53.672;10.014;2022-10-18T02:39:37;14.20;99.90
29363;DHT22;16349;53.672;10.014;2022-10-18T02:42:09;14.20;99.90
29363;DHT22;16349;53.672;10.014;2022-10-18T02:44:37;14.20;99.90
29363;DHT22;16349;53.672;10.014;2022-10-18T02:47:06;14.20;99.90
29363;DHT22;16349;53.672;10.014;2022-10-18T02:49:33;14.20;99.90
29363;DHT22;16349;53.672;10.014;2022-10-18T02:52:02;14.20;99.90
29363;DHT22;16349;53.672;10.014;2022-10-18T02:54:28;14.20;99.90
29363;DHT22;16349;53.672;10.014;2022-10-18T02:56:55;14.20;99.90
29363;DHT22;16349;53.672;10.014;2022-10-18T02:59:22;14.20;99.90
29363;DHT22;16349;53.672;10.014;2022-10-18T03:01:49;14.10;99.90
29363;DHT22;16349;53.672;10.014;2022-10-18T03:04:16;14.10;99.90
29363;DHT22;16349;53.672;10.014;2022-10-18T03:06:43;14.10;99.90
29363;DHT22;16349;53.672;10.014;2022-10-18T03:09:11;14.10;99.90
29363;DHT22;16349;53.672;10.014;2022-10-18T03:11:37;14.10;99.90
29363;DHT22;16349;53.672;10.014;2022-10-18T03:14:04;14.10;99.90
29363;DHT22;16349;53.672;10.014;2022-10-18T03:16:32;14.10;99.90
29363;DHT22;16349;53.672;10.014;2022-10-18T03:18:59;14.10;99.90
29363;DHT22;16349;53.672;10.014;2022-10-18T03:21:26;14.10;99.90
29363;DHT22;16349;53.672;10.014;2022-10-18T03:23:53;14.10;99.90
29363;DHT22;16349;53.672;10.014;2022-10-18T03:26:21;14.10;99.90
29363;DHT22;16349;53.672;10.014;2022-10-18T03:28:48;14.10;99.90
29363;DHT22;16349;53.672;10.014;2022-10-18T03:31:15;14.10;99.90
29363;DHT22;16349;53.672;10.014;2022-10-18T03:33:42;14.00;99.90
29363;DHT22;16349;53.672;10.014;2022-10-18T03:36:09;14.10;99.90
29363;DHT22;16349;53.672;10.014;2022-10-18T03:38:37;14.10;99.90
29363;DHT22;16349;53.672;10.014;2022-10-18T03:41:04;14.10;99.90
29363;DHT22;16349;53.672;10.014;2022-10-18T03:43:33;14.10;99.90
29363;DHT22;16349;53.672;10.014;2022-10-18T03:46:00;14.10;99.90
29363;DHT22;16349;53.672;10.014;2022-10-18T03:48:27;14.10;99.90
29363;DHT22;16349;53.672;10.014;2022-10-18T03:50:54;14.10;99.90
29363;DHT22;16349;53.672;10.014;2022-10-18T03:53:21;14.00;99.90
29363;DHT22;16349;53.672;10.014;2022-10-18T03:55:50;14.10;99.90
29363;DHT22;16349;53.672;10.014;2022-10-18T03:58:17;14.10;99.90
29363;DHT22;16349;53.672;10.014;2022-10-18T04:00:48;14.10;99.90
29363;DHT22;16349;53.672;10.014;2022-10-18T04:03:15;14.10;99.90
29363;DHT22;16349;53.672;10.014;2022-10-18T04:05:42;14.10;99.90
29363;DHT22;16349;53.672;10.014;2022-10-18T04:08:09;14.10;99.90
29363;DHT22;16349;53.672;10.014;2022-10-18T04:10:36;14.10;99.90
29363;DHT22;16349;53.672;10.014;2022-10-18T04:13:03;14.00;99.90
29363;DHT22;16349;53.672;10.014;2022-10-18T04:15:30;14.00;99.90
29363;DHT22;16349;53.672;10.014;2022-10-18T04:17:59;14.00;99.90
29363;DHT22;16349;53.672;10.014;2022-10-18T04:20:26;14.10;99.90
29363;DHT22;16349;53.672;10.014;2022-10-18T04:22:53;14.00;99.90
29363;DHT22;16349;53.672;10.014;2022-10-18T04:25:23;14.00;99.90
29363;DHT22;16349;53.672;10.014;2022-10-18T04:27:49;14.00;99.90
29363;DHT22;16349;53.672;10.014;2022-10-18T04:30:17;14.00;99.90
29363;DHT22;16349;53.672;10.014;2022-10-18T04:32:43;13.90;99.90
29363;DHT22;16349;53.672;10.014;2022-10-18T04:35:11;13.90;99.90
29363;DHT22;16349;53.672;10.014;2022-10-18T04:37:38;13.90;99.90
29363;DHT22;16349;53.672;10.014;2022-10-18T04:40:06;13.90;99.90
29363;DHT22;16349;53.672;10.014;2022-10-18T04:42:33;13.90;99.90
29363;DHT22;16349;53.672;10.014;2022-10-18T04:45:00;13.90;99.90
29363;DHT22;16349;53.672;10.014;2022-10-18T04:47:27;13.90;99.90
29363;DHT22;16349;53.672;10.014;2022-10-18T04:49:54;13.90;99.90
29363;DHT22;16349;53.672;10.014;2022-10-18T04:52:23;13.90;99.90
29363;DHT22;16349;53.672;10.014;2022-10-18T04:54:49;13.90;99.90
29363;DHT22;16349;53.672;10.014;2022-10-18T04:57:16;13.90;99.90
29363;DHT22;16349;53.672;10.014;2022-10-18T04:59:43;13.90;99.90
29363;DHT22;16349;53.672;10.014;2022-10-18T05:02:10;13.90;99.90
29363;DHT22;16349;53.672;10.014;2022-10-18T05:04:37;13.90;99.90
29363;DHT22;16349;53.672;10.014;2022-10-18T05:07:03;13.90;99.90
29363;DHT22;16349;53.672;10.014;2022-10-18T05:09:32;13.90;99.90
29363;DHT22;16349;53.672;10.014;2022-10-18T05:11:59;13.80;99.90
29363;DHT22;16349;53.672;10.014;2022-10-18T05:14:25;13.90;99.90
29363;DHT22;16349;53.672;10.014;2022-10-18T05:16:52;13.80;99.90
29363;DHT22;16349;53.672;10.014;2022-10-18T05:19:19;13.80;99.90
29363;DHT22;16349;53.672;10.014;2022-10-18T05:21:45;13.80;99.90
29363;DHT22;16349;53.672;10.014;2022-10-18T05:24:12;13.80;99.90
29363;DHT22;16349;53.672;10.014;2022-10-18T05:26:40;13.80;99.90
29363;DHT22;16349;53.672;10.014;2022-10-18T05:29:07;13.80;99.90
29363;DHT22;16349;53.672;10.014;2022-10-18T05:31:34;13.80;99.90
29363;DHT22;16349;53.672;10.014;2022-10-18T05:34:00;13.80;99.90
29363;DHT22;16349;53.672;10.014;2022-10-18T05:36:27;13.80;99.90
29363;DHT22;16349;53.672;10.014;2022-10-18T05:38:54;13.80;99.90
29363;DHT22;16349;53.672;10.014;2022-10-18T05:41:21;13.80;99.90
29363;DHT22;16349;53.672;10.014;2022-10-18T05:43:49;13.80;99.90
29363;DHT22;16349;53.672;10.014;2022-10-18T05:46:17;13.80;99.90
29363;DHT22;16349;53.672;10.014;2022-10-18T05:48:48;13.70;99.90
29363;DHT22;16349;53.672;10.014;2022-10-18T05:51:15;13.70;99.90
29363;DHT22;16349;53.672;10.014;2022-10-18T05:53:42;13.70;99.90
29363;DHT22;16349;53.672;10.014;2022-10-18T05:56:09;13.70;99.90
29363;DHT22;16349;53.672;10.014;2022-10-18T05:58:37;13.70;99.90
29363;DHT22;16349;53.672;10.014;2022-10-18T06:01:05;13.70;99.90
29363;DHT22;16349;53.672;10.014;2022-10-18T06:03:33;13.70;99.90
29363;DHT22;16349;53.672;10.014;2022-10-18T06:06:00;13.70;99.90
29363;DHT22;16349;53.672;10.014;2022-10-18T06:08:26;13.70;99.90
29363;DHT22;16349;53.672;10.014;2022-10-18T06:10:53;13.60;99.90
29363;DHT22;16349;53.672;10.014;2022-10-18T06:13:20;13.60;99.90
29363;DHT22;16349;53.672;10.014;2022-10-18T06:15:47;13.60;99.90
29363;DHT22;16349;53.672;10.014;2022-10-18T06:18:15;13.60;99.90
29363;DHT22;16349;53.672;10.014;2022-10-18T06:20:42;13.50;99.90
29363;DHT22;16349;53.672;10.014;2022-10-18T06:23:09;13.50;99.90
29363;DHT22;16349;53.672;10.014;2022-10-18T06:25:35;13.40;99.90
29363;DHT22;16349;53.672;10.014;2022-10-18T06:28:03;13.40;99.90
29363;DHT22;16349;53.672;10.014;2022-10-18T06:30:30;13.50;99.90
29363;DHT22;16349;53.672;10.014;2022-10-18T06:32:58;13.50;99.90
29363;DHT22;16349;53.672;10.014;2022-10-18T06:35:27;13.40;99.90
29363;DHT22;16349;53.672;10.014;2022-10-18T06:37:53;13.50;99.90
29363;DHT22;16349;53.672;10.014;2022-10-18T06:40:20;13.50;99.90
29363;DHT22;16349;53.672;10.014;2022-10-18T06:42:47;13.50;99.90
29363;DHT22;16349;53.672;10.014;2022-10-18T06:45:14;13.50;99.90
29363;DHT22;16349;53.672;10.014;2022-10-18T06:47:42;13.50;99.90
29363;DHT22;16349;53.672;10.014;2022-10-18T06:50:09;13.50;99.90
29363;DHT22;16349;53.672;10.014;2022-10-18T06:52:39;13.50;99.90
29363;DHT22;16349;53.672;10.014;2022-10-18T06:55:07;13.50;99.90
29363;DHT22;16349;53.672;10.014;2022-10-18T06:57:35;13.50;99.90
29363;DHT22;16349;53.672;10.014;2022-10-18T07:00:03;13.50;99.90
29363;DHT22;16349;53.672;10.014;2022-10-18T07:02:30;13.50;99.90
29363;DHT22;16349;53.672;10.014;2022-10-18T07:04:56;13.50;99.90
29363;DHT22;16349;53.672;10.014;2022-10-18T07:07:23;13.60;99.90
29363;DHT22;16349;53.672;10.014;2022-10-18T07:09:53;13.60;99.90
29363;DHT22;16349;53.672;10.014;2022-10-18T07:12:19;13.60;99.90
29363;DHT22;16349;53.672;10.014;2022-10-18T07:14:46;13.70;99.90
29363;DHT22;16349;53.672;10.014;2022-10-18T07:17:13;13.70;99.90
29363;DHT22;16349;53.672;10.014;2022-10-18T07:19:39;13.70;99.90
29363;DHT22;16349;53.672;10.014;2022-10-18T07:22:06;13.70;99.90
29363;DHT22;16349;53.672;10.014;2022-10-18T07:24:33;13.70;99.90
29363;DHT22;16349;53.672;10.014;2022-10-18T07:27:01;13.70;99.90
29363;DHT22;16349;53.672;10.014;2022-10-18T07:29:27;13.70;99.90
29363;DHT22;16349;53.672;10.014;2022-10-18T07:31:55;13.70;99.90
29363;DHT22;16349;53.672;10.014;2022-10-18T07:34:22;13.70;99.90
29363;DHT22;16349;53.672;10.014;2022-10-18T07:36:49;13.70;99.90
29363;DHT22;16349;53.672;10.014;2022-10-18T07:39:16;13.70;99.90
29363;DHT22;16349;53.672;10.014;2022-10-18T07:41:43;13.70;99.90
29363;DHT22;16349;53.672;10.014;2022-10-18T07:44:11;13.70;99.90
29363;DHT22;16349;53.672;10.014;2022-10-18T07:46:38;13.70;99.90
29363;DHT22;16349;53.672;10.014;2022-10-18T07:49:05;13.70;99.90
29363;DHT22;16349;53.672;10.014;2022-10-18T07:51:31;13.70;99.90
29363;DHT22;16349;53.672;10.014;2022-10-18T07:54:00;13.70;99.90
29363;DHT22;16349;53.672;10.014;2022-10-18T07:56:27;13.70;99.90
29363;DHT22;16349;53.672;10.014;2022-10-18T07:58:55;13.70;99.90
29363;DHT22;16349;53.672;10.014;2022-10-18T08:01:23;13.70;99.90
29363;DHT22;16349;53.672;10.014;2022-10-18T08:03:51;13.80;99.90
29363;DHT22;16349;53.672;10.014;2022-10-18T08:06:19;13.70;99.90
29363;DHT22;16349;53.672;10.014;2022-10-18T08:08:47;13.80;99.90
29363;DHT22;16349;53.672;10.014;2022-10-18T08:11:17;13.70;99.90
29363;DHT22;16349;53.672;10.014;2022-10-18T08:13:43;13.70;99.90
29363;DHT22;16349;53.672;10.014;2022-10-18T08:16:12;13.70;99.90
29363;DHT22;16349;53.672;10.014;2022-10-18T08:18:41;13.80;99.90
29363;DHT22;16349;53.672;10.014;2022-10-18T08:21:10;13.80;99.90
29363;DHT22;16349;53.672;10.014;2022-10-18T08:23:38;13.80;99.90
29363;DHT22;16349;53.672;10.014;2022-10-18T08:26:06;13.80;99.90
29363;DHT22;16349;53.672;10.014;2022-10-18T08:28:33;13.80;99.90
29363;DHT22;16349;53.672;10.014;2022-10-18T08:31:01;13.80;99.90
29363;DHT22;16349;53.672;10.014;2022-10-18T08:33:29;13.80;99.90
29363;DHT22;16349;53.672;10.014;2022-10-18T08:35:59;13.80;99.90
29363;DHT22;16349;53.672;10.014;2022-10-18T08:38:28;13.80;99.90
29363;DHT22;16349;53.672;10.014;2022-10-18T08:40:54;13.80;99.90
29363;DHT22;16349;53.672;10.014;2022-10-18T08:43:27;13.80;99.90
29363;DHT22;16349;53.672;10.014;2022-10-18T08:45:58;13.80;99.90
29363;DHT22;16349;53.672;10.014;2022-10-18T08:48:31;13.80;99.90
29363;DHT22;16349;53.672;10.014;2022-10-18T08:51:02;13.90;99.90
29363;DHT22;16349;53.672;10.014;2022-10-18T08:53:34;13.90;99.90
29363;DHT22;16349;53.672;10.014;2022-10-18T08:56:05;13.90;99.90
29363;DHT22;16349;53.672;10.014;2022-10-18T08:58:36;13.90;99.90
29363;DHT22;16349;53.672;10.014;2022-10-18T09:01:12;13.90;99.90
29363;DHT22;16349;53.672;10.014;2022-10-18T09:03:59;14.00;99.90
29363;DHT22;16349;53.672;10.014;2022-10-18T09:06:33;14.00;99.90
29363;DHT22;16349;53.672;10.014;2022-10-18T09:09:10;14.00;99.90
29363;DHT22;16349;53.672;10.014;2022-10-18T09:11:49;14.00;99.90
29363;DHT22;16349;53.672;10.014;2022-10-18T09:14:43;14.10;99.90
29363;DHT22;16349;53.672;10.014;2022-10-18T09:17:21;14.20;99.90
29363;DHT22;16349;53.672;10.014;2022-10-18T09:20:02;14.30;99.90
29363;DHT22;16349;53.672;10.014;2022-10-18T09:22:50;14.30;99.90
29363;DHT22;16349;53.672;10.014;2022-10-18T09:25:19;14.30;99.90
29363;DHT22;16349;53.672;10.014;2022-10-18T09:28:06;14.40;99.90
29363;DHT22;16349;53.672;10.014;2022-10-18T09:30:42;14.30;99.90
29363;DHT22;16349;53.672;10.014;2022-10-18T09:33:22;14.30;99.90
29363;DHT22;16349;53.672;10.014;2022-10-18T09:35:54;14.30;99.90
29363;DHT22;16349;53.672;10.014;2022-10-18T09:38:26;14.40;99.90
29363;DHT22;16349;53.672;10.014;2022-10-18T09:40:57;14.60;99.90
29363;DHT22;16349;53.672;10.014;2022-10-18T09:43:36;14.70;99.90
29363;DHT22;16349;53.672;10.014;2022-10-18T09:46:05;15.00;99.90
29363;DHT22;16349;53.672;10.014;2022-10-18T09:48:40;15.20;99.90
29363;DHT22;16349;53.672;10.014;2022-10-18T09:51:11;15.20;99.90
29363;DHT22;16349;53.672;10.014;2022-10-18T09:53:55;15.20;99.90
29363;DHT22;16349;53.672;10.014;2022-10-18T09:56:27;15.20;99.90
29363;DHT22;16349;53.672;10.014;2022-10-18T09:58:55;15.30;99.90
29363;DHT22;16349;53.672;10.014;2022-10-18T10:01:24;15.30;99.90
29363;DHT22;16349;53.672;10.014;2022-10-18T10:03:51;15.30;99.90
29363;DHT22;16349;53.672;10.014;2022-10-18T10:06:24;15.30;99.90
29363;DHT22;16349;53.672;10.014;2022-10-18T10:08:58;15.20;99.90
29363;DHT22;16349;53.672;10.014;2022-10-18T10:11:31;15.10;99.90
29363;DHT22;16349;53.672;10.014;2022-10-18T10:14:07;15.00;99.90
29363;DHT22;16349;53.672;10.014;2022-10-18T10:16:42;15.00;99.90
29363;DHT22;16349;53.672;10.014;2022-10-18T10:19:16;15.00;99.90
29363;DHT22;16349;53.672;10.014;2022-10-18T10:21:43;15.10;99.90
29363;DHT22;16349;53.672;10.014;2022-10-18T10:24:20;15.20;99.90
29363;DHT22;16349;53.672;10.014;2022-10-18T10:26:49;15.30;99.90
29363;DHT22;16349;53.672;10.014;2022-10-18T10:29:49;15.30;99.90
29363;DHT22;16349;53.672;10.014;2022-10-18T10:32:20;15.50;99.90
29363;DHT22;16349;53.672;10.014;2022-10-18T10:34:48;15.60;99.90
29363;DHT22;16349;53.672;10.014;2022-10-18T10:37:27;15.60;99.90
29363;DHT22;16349;53.672;10.014;2022-10-18T10:40:06;15.60;99.90
29363;DHT22;16349;53.672;10.014;2022-10-18T10:42:36;15.50;99.90
29363;DHT22;16349;53.672;10.014;2022-10-18T10:45:10;15.40;99.90
29363;DHT22;16349;53.672;10.014;2022-10-18T10:47:38;15.20;99.90
29363;DHT22;16349;53.672;10.014;2022-10-18T10:50:10;15.10;99.90
29363;DHT22;16349;53.672;10.014;2022-10-18T10:52:38;15.00;99.90
29363;DHT22;16349;53.672;10.014;2022-10-18T10:55:17;15.00;99.90
29363;DHT22;16349;53.672;10.014;2022-10-18T10:57:46;15.00;99.90
29363;DHT22;16349;53.672;10.014;2022-10-18T11:00:40;15.00;99.90
29363;DHT22;16349;53.672;10.014;2022-10-18T11:03:11;14.90;99.90
29363;DHT22;16349;53.672;10.014;2022-10-18T11:05:44;14.90;99.90
29363;DHT22;16349;53.672;10.014;2022-10-18T11:08:14;15.00;99.90
29363;DHT22;16349;53.672;10.014;2022-10-18T11:10:56;15.10;99.90
29363;DHT22;16349;53.672;10.014;2022-10-18T11:13:33;15.10;99.90
29363;DHT22;16349;53.672;10.014;2022-10-18T11:16:12;15.20;99.90
29363;DHT22;16349;53.672;10.014;2022-10-18T11:18:42;15.30;99.90
29363;DHT22;16349;53.672;10.014;2022-10-18T11:21:14;15.30;99.90
29363;DHT22;16349;53.672;10.014;2022-10-18T11:23:42;15.40;99.90
29363;DHT22;16349;53.672;10.014;2022-10-18T11:29:19;15.60;99.90
29363;DHT22;16349;53.672;10.014;2022-10-18T11:31:54;15.70;99.90
29363;DHT22;16349;53.672;10.014;2022-10-18T11:34:42;15.80;99.90
29363;DHT22;16349;53.672;10.014;2022-10-18T11:37:27;15.90;99.90
29363;DHT22;16349;53.672;10.014;2022-10-18T11:40:04;15.90;99.90
29363;DHT22;16349;53.672;10.014;2022-10-18T11:42:40;15.80;99.90
29363;DHT22;16349;53.672;10.014;2022-10-18T11:45:17;15.70;99.90
29363;DHT22;16349;53.672;10.014;2022-10-18T11:47:53;15.60;99.90
29363;DHT22;16349;53.672;10.014;2022-10-18T11:50:29;15.40;99.90
29363;DHT22;16349;53.672;10.014;2022-10-18T11:53:08;15.30;99.90
29363;DHT22;16349;53.672;10.014;2022-10-18T11:55:44;15.30;99.90
29363;DHT22;16349;53.672;10.014;2022-10-18T11:58:29;15.20;99.90
29363;DHT22;16349;53.672;10.014;2022-10-18T12:01:04;15.20;99.90
29363;DHT22;16349;53.672;10.014;2022-10-18T12:03:36;15.10;99.90
29363;DHT22;16349;53.672;10.014;2022-10-18T12:06:11;15.20;99.90
29363;DHT22;16349;53.672;10.014;2022-10-18T12:08:42;15.20;99.90
29363;DHT22;16349;53.672;10.014;2022-10-18T12:11:13;15.30;99.90
29363;DHT22;16349;53.672;10.014;2022-10-18T12:13:47;15.40;99.90
29363;DHT22;16349;53.672;10.014;2022-10-18T12:16:16;15.40;99.90
29363;DHT22;16349;53.672;10.014;2022-10-18T12:18:52;15.60;99.90
29363;DHT22;16349;53.672;10.014;2022-10-18T12:21:21;15.60;99.90
29363;DHT22;16349;53.672;10.014;2022-10-18T12:23:52;15.70;99.90
29363;DHT22;16349;53.672;10.014;2022-10-18T12:26:20;15.70;99.90
29363;DHT22;16349;53.672;10.014;2022-10-18T12:28:55;15.60;99.90
29363;DHT22;16349;53.672;10.014;2022-10-18T12:31:26;15.60;99.90
29363;DHT22;16349;53.672;10.014;2022-10-18T12:34:02;15.50;99.90
29363;DHT22;16349;53.672;10.014;2022-10-18T12:36:47;15.40;99.90
29363;DHT22;16349;53.672;10.014;2022-10-18T12:39:20;15.40;99.90
29363;DHT22;16349;53.672;10.014;2022-10-18T12:41:52;15.40;99.90
29363;DHT22;16349;53.672;10.014;2022-10-18T12:44:25;15.50;99.90
29363;DHT22;16349;53.672;10.014;2022-10-18T12:46:56;15.60;99.90
29363;DHT22;16349;53.672;10.014;2022-10-18T12:49:27;15.70;99.90
29363;DHT22;16349;53.672;10.014;2022-10-18T12:51:56;15.80;99.90
29363;DHT22;16349;53.672;10.014;2022-10-18T12:54:26;15.80;99.90
29363;DHT22;16349;53.672;10.014;2022-10-18T12:56:54;15.80;99.90
29363;DHT22;16349;53.672;10.014;2022-10-18T12:59:40;15.80;99.90
29363;DHT22;16349;53.672;10.014;2022-10-18T13:02:17;15.90;99.90
29363;DHT22;16349;53.672;10.014;2022-10-18T13:04:44;15.90;99.90
29363;DHT22;16349;53.672;10.014;2022-10-18T13:07:17;15.90;99.90
29363;DHT22;16349;53.672;10.014;2022-10-18T13:12:54;16.10;99.90
29363;DHT22;16349;53.672;10.014;2022-10-18T13:15:41;16.10;99.90
29363;DHT22;16349;53.672;10.014;2022-10-18T13:18:18;16.00;99.90
29363;DHT22;16349;53.672;10.014;2022-10-18T13:20:53;16.00;99.90
29363;DHT22;16349;53.672;10.014;2022-10-18T13:23:34;16.10;99.90
29363;DHT22;16349;53.672;10.014;2022-10-18T13:26:12;16.20;99.90
29363;DHT22;16349;53.672;10.014;2022-10-18T13:28:48;17.10;99.90
29363;DHT22;16349;53.672;10.014;2022-10-18T13:31:21;17.80;99.90
29363;DHT22;16349;53.672;10.014;2022-10-18T13:33:49;18.00;99.90
29363;DHT22;16349;53.672;10.014;2022-10-18T13:36:20;17.80;99.90
29363;DHT22;16349;53.672;10.014;2022-10-18T13:38:59;17.40;99.90
29363;DHT22;16349;53.672;10.014;2022-10-18T13:41:29;17.30;99.90
29363;DHT22;16349;53.672;10.014;2022-10-18T13:44:24;17.40;99.90
29363;DHT22;16349;53.672;10.014;2022-10-18T13:50:28;17.40;99.90
29363;DHT22;16349;53.672;10.014;2022-10-18T13:56:14;17.10;99.90
29363;DHT22;16349;53.672;10.014;2022-10-18T13:58:52;17.20;99.90
29363;DHT22;16349;53.672;10.014;2022-10-18T14:01:30;17.00;99.90
29363;DHT22;16349;53.672;10.014;2022-10-18T14:07:09;17.40;99.90
29363;DHT22;16349;53.672;10.014;2022-10-18T14:09:43;17.30;99.90
29363;DHT22;16349;53.672;10.014;2022-10-18T14:12:20;17.10;99.90
29363;DHT22;16349;53.672;10.014;2022-10-18T14:14:55;16.90;99.90
29363;DHT22;16349;53.672;10.014;2022-10-18T14:17:29;16.70;99.90
29363;DHT22;16349;53.672;10.014;2022-10-18T14:20:00;16.70;99.90
29363;DHT22;16349;53.672;10.014;2022-10-18T14:22:33;16.70;99.90
29363;DHT22;16349;53.672;10.014;2022-10-18T14:25:02;16.70;99.90
29363;DHT22;16349;53.672;10.014;2022-10-18T14:27:30;16.60;99.90
29363;DHT22;16349;53.672;10.014;2022-10-18T14:30:11;16.60;99.90
29363;DHT22;16349;53.672;10.014;2022-10-18T14:32:42;16.40;99.90
29363;DHT22;16349;53.672;10.014;2022-10-18T14:35:16;16.60;99.90
29363;DHT22;16349;53.672;10.014;2022-10-18T14:37:46;16.80;99.90
29363;DHT22;16349;53.672;10.014;2022-10-18T14:40:28;17.00;99.90
29363;DHT22;16349;53.672;10.014;2022-10-18T14:42:55;17.20;99.90
29363;DHT22;16349;53.672;10.014;2022-10-18T14:45:22;17.00;99.90
29363;DHT22;16349;53.672;10.014;2022-10-18T14:47:49;16.90;99.90
29363;DHT22;16349;53.672;10.014;2022-10-18T14:50:20;16.90;99.90
29363;DHT22;16349;53.672;10.014;2022-10-18T14:52:49;16.60;99.90
29363;DHT22;16349;53.672;10.014;2022-10-18T14:55:20;16.40;99.90
29363;DHT22;16349;53.672;10.014;2022-10-18T14:57:48;16.20;99.90
29363;DHT22;16349;53.672;10.014;2022-10-18T15:00:20;16.10;99.90
29363;DHT22;16349;53.672;10.014;2022-10-18T15:02:50;15.90;99.90
29363;DHT22;16349;53.672;10.014;2022-10-18T15:05:18;15.80;99.90
29363;DHT22;16349;53.672;10.014;2022-10-18T15:07:46;15.70;99.90
29363;DHT22;16349;53.672;10.014;2022-10-18T15:10:17;15.60;99.90
29363;DHT22;16349;53.672;10.014;2022-10-18T15:12:45;15.60;99.90
29363;DHT22;16349;53.672;10.014;2022-10-18T15:15:17;15.50;99.90
29363;DHT22;16349;53.672;10.014;2022-10-18T15:17:45;15.50;99.90
29363;DHT22;16349;53.672;10.014;2022-10-18T15:20:21;15.40;99.90
29363;DHT22;16349;53.672;10.014;2022-10-18T15:22:49;15.40;99.90
29363;DHT22;16349;53.672;10.014;2022-10-18T15:25:21;15.30;99.90
29363;DHT22;16349;53.672;10.014;2022-10-18T15:27:51;15.30;99.90
29363;DHT22;16349;53.672;10.014;2022-10-18T15:30:24;15.30;99.90
29363;DHT22;16349;53.672;10.014;2022-10-18T15:32:54;15.20;99.90
29363;DHT22;16349;53.672;10.014;2022-10-18T15:35:24;15.20;99.90
29363;DHT22;16349;53.672;10.014;2022-10-18T15:37:51;15.10;99.90
29363;DHT22;16349;53.672;10.014;2022-10-18T15:40:32;15.10;99.90
29363;DHT22;16349;53.672;10.014;2022-10-18T15:43:00;15.10;99.90
29363;DHT22;16349;53.672;10.014;2022-10-18T15:45:32;15.00;99.90
29363;DHT22;16349;53.672;10.014;2022-10-18T15:48:01;15.00;99.90
29363;DHT22;16349;53.672;10.014;2022-10-18T15:50:39;15.00;99.90
29363;DHT22;16349;53.672;10.014;2022-10-18T15:53:35;15.00;99.90